Time;durP1;ratioP1;P1;durP2;ratioP2;P2;SDS_P1;SDS_P2;PMS_P1;PMS_P2;Temp;Humidity;BMP_temperature;BMP_pressure;BME280_temperature;BME280_humidity;BME280_pressure;Samples;Min_cycle;Max_cycle;Signal;HPM_P1;HPM_P2
2024/01/30 00:01:43;;;;;;;14.82;8.10;;;;;;;-0.64;80.25;101632.97;5112889;27;20019;-75
2024/01/30 00:04:08;;;;;;;18.10;10.80;;;;;;;-0.96;80.10;101629.91;5112231;28;20035;-76
2024/01/30 00:06:34;;;;;;;20.70;12.93;;;;;;;-1.28;81.86;101630.38;5112084;28;20024;-77
2024/01/30 00:08:59;;;;;;;36.55;16.50;;;;;;;-1.46;83.44;101620.78;5112886;28;20098;-76
2024/01/30 00:11:28;;;;;;;32.15;17.17;;;;;;;-1.70;85.18;101633.06;5100889;28;20020;-77
2024/01/30 00:13:56;;;;;;;24.75;14.13;;;;;;;-1.65;85.37;101633.34;5091332;28;20063;-77
2024/01/30 00:16:23;;;;;;;25.80;13.25;;;;;;;-1.71;86.22;101634.13;5110585;28;20043;-77
2024/01/30 00:18:50;;;;;;;31.40;16.95;;;;;;;-1.62;86.23;101632.09;5112647;28;20030;-75
2024/01/30 00:21:15;;;;;;;29.83;16.25;;;;;;;-1.67;86.72;101642.81;5112685;28;20058;-74
2024/01/30 00:23:41;;;;;;;33.25;17.33;;;;;;;-2.03;89.11;101636.41;5111240;28;20079;-75
2024/01/30 00:26:06;;;;;;;26.45;13.35;;;;;;;-2.35;91.96;101633.16;5109181;28;20053;-78
2024/01/30 00:28:32;;;;;;;22.45;12.43;;;;;;;-2.61;93.58;101635.41;5109597;28;20028;-77
2024/01/30 00:30:57;;;;;;;30.60;12.95;;;;;;;-2.63;94.47;101642.97;5112520;28;20488;-77
2024/01/30 00:33:22;;;;;;;18.73;10.45;;;;;;;-2.37;93.52;101646.22;5112440;27;20027;-76
2024/01/30 00:35:48;;;;;;;26.02;14.00;;;;;;;-2.30;92.85;101647.13;5112641;28;20027;-76
2024/01/30 00:38:13;;;;;;;32.22;15.32;;;;;;;-2.28;92.38;101639.56;5111498;28;20020;-76
2024/01/30 00:40:39;;;;;;;28.65;15.55;;;;;;;-2.14;92.05;101651.50;5112345;28;20023;-76
2024/01/30 00:43:04;;;;;;;30.00;14.52;;;;;;;-2.39;92.77;101635.44;5111063;28;20023;-78
2024/01/30 00:45:30;;;;;;;21.27;12.88;;;;;;;-2.22;92.11;101655.22;5092213;28;20039;-76
2024/01/30 00:47:55;;;;;;;29.45;11.90;;;;;;;-2.22;92.36;101649.75;5090608;28;20492;-77
2024/01/30 00:50:21;;;;;;;21.58;11.32;;;;;;;-2.36;92.00;101646.00;5106362;28;20027;-76
2024/01/30 00:52:47;;;;;;;25.05;12.40;;;;;;;-2.59;93.41;101648.94;5110850;28;20399;-79
2024/01/30 00:55:14;;;;;;;25.88;12.48;;;;;;;-2.61;94.40;101651.84;5111151;28;20023;-78
2024/01/30 00:57:40;;;;;;;30.27;14.48;;;;;;;-2.57;94.18;101652.31;5110597;28;20518;-77
2024/01/30 01:00:07;;;;;;;25.35;12.80;;;;;;;-2.72;95.15;101653.22;5106732;28;20122;-78
2024/01/30 01:02:34;;;;;;;25.17;13.55;;;;;;;-2.86;95.96;101643.97;5097350;28;20031;-78
2024/01/30 01:05:00;;;;;;;29.40;14.15;;;;;;;-2.68;96.10;101649.03;5111955;28;20027;-78
2024/01/30 01:07:25;;;;;;;30.20;14.05;;;;;;;-2.67;95.56;101647.16;5110387;28;20023;-77
2024/01/30 01:09:51;;;;;;;32.35;14.57;;;;;;;-2.77;95.78;101652.09;5110442;28;20027;-79
2024/01/30 01:12:16;;;;;;;31.85;15.80;;;;;;;-2.78;96.17;101645.75;5111723;28;20574;-78
2024/01/30 01:14:41;;;;;;;32.00;16.33;;;;;;;-2.75;96.14;101641.78;5109743;28;20099;-78
2024/01/30 01:17:07;;;;;;;28.58;15.38;;;;;;;-2.76;96.11;101643.69;5110721;28;20027;-79
2024/01/30 01:19:32;;;;;;;31.95;15.65;;;;;;;-2.64;95.48;101635.81;5096131;28;20507;-78
2024/01/30 01:21:58;;;;;;;30.60;14.40;;;;;;;-2.61;95.68;101640.06;5092262;28;20378;-77
2024/01/30 01:24:24;;;;;;;32.67;15.85;;;;;;;-2.66;95.93;101637.91;5090992;28;20047;-78
2024/01/30 01:26:49;;;;;;;31.08;15.35;;;;;;;-2.60;96.25;101644.50;5101745;28;20035;-77
2024/01/30 01:29:15;;;;;;;31.48;15.40;;;;;;;-2.61;97.05;101638.16;5110665;28;20023;-76
2024/01/30 01:31:44;;;;;;;27.35;14.88;;;;;;;-2.61;97.52;101634.59;5111403;28;20056;-74
2024/01/30 01:34:13;;;;;;;28.90;13.98;;;;;;;-2.40;97.13;101629.13;5101784;28;20031;-77
2024/01/30 01:36:39;;;;;;;29.25;14.48;;;;;;;-2.65;97.16;101631.38;5091135;28;20027;-79
2024/01/30 01:39:05;;;;;;;28.67;13.70;;;;;;;-2.70;97.82;101633.84;5103865;28;20080;-80
2024/01/30 01:41:31;;;;;;;28.58;15.23;;;;;;;-2.78;98.44;101623.84;5109776;28;20495;-78
2024/01/30 01:43:58;;;;;;;28.17;16.25;;;;;;;-2.96;100.00;101621.53;5111086;28;20031;-78
2024/01/30 01:46:26;;;;;;;26.00;15.40;;;;;;;-2.80;99.90;101620.44;5110168;28;20069;-79
2024/01/30 01:48:51;;;;;;;39.40;20.15;;;;;;;-2.74;98.67;101629.78;5107500;28;20032;-76
2024/01/30 01:51:17;;;;;;;42.60;23.35;;;;;;;-2.78;98.83;101626.56;5097575;28;20016;-79
2024/01/30 01:53:42;;;;;;;45.10;23.40;;;;;;;-3.14;99.51;101617.31;5090339;28;20067;-78
2024/01/30 01:56:08;;;;;;;29.05;16.30;;;;;;;-3.27;100.00;101628.09;5090186;28;20020;-79
2024/01/30 01:58:34;;;;;;;31.80;14.35;;;;;;;-3.32;100.00;101616.84;5095944;28;20062;-79
2024/01/30 02:01:00;;;;;;;32.80;15.82;;;;;;;-3.27;100.00;101622.63;5097941;28;20424;-79
2024/01/30 02:03:25;;;;;;;45.67;18.65;;;;;;;-3.20;100.00;101625.44;5118823;27;20106;-79
2024/01/30 02:05:51;;;;;;;41.33;17.38;;;;;;;-3.16;100.00;101616.66;5110764;28;20027;-75
2024/01/30 02:08:17;;;;;;;41.85;16.73;;;;;;;-3.21;100.00;101635.53;5110814;28;20023;-78
2024/01/30 02:10:42;;;;;;;31.67;16.17;;;;;;;-3.23;100.00;101636.78;5109627;28;20403;-77
2024/01/30 02:13:08;;;;;;;34.90;18.48;;;;;;;-3.16;100.00;101626.75;5109293;28;20024;-78
2024/01/30 02:15:33;;;;;;;32.78;15.43;;;;;;;-3.19;100.00;101627.13;5108546;28;20508;-77
2024/01/30 02:17:59;;;;;;;33.92;16.48;;;;;;;-3.21;100.00;101629.22;5094638;28;20031;-77
2024/01/30 02:20:25;;;;;;;33.58;17.30;;;;;;;-3.20;100.00;101620.78;5090465;28;20020;-77
2024/01/30 02:22:54;;;;;;;39.83;19.65;;;;;;;-3.07;99.79;101622.03;5090117;28;20111;-78
2024/01/30 02:25:19;;;;;;;52.20;25.60;;;;;;;-3.01;100.00;101630.34;5090125;28;20558;-78
2024/01/30 02:27:45;;;;;;;51.08;21.80;;;;;;;-3.05;99.48;101634.47;5108079;28;20027;-78
2024/01/30 02:30:11;;;;;;;39.95;19.92;;;;;;;-3.06;100.00;101627.31;5109724;28;20059;-76
2024/01/30 02:32:36;;;;;;;44.72;18.13;;;;;;;-3.18;99.48;101631.56;5110712;28;20536;-77
2024/01/30 02:35:02;;;;;;;42.47;19.52;;;;;;;-3.14;99.75;101636.47;5099961;28;20066;-76
2024/01/30 02:37:27;;;;;;;48.08;22.00;;;;;;;-3.32;100.00;101627.78;5105222;28;20458;-79
2024/01/30 02:39:53;;;;;;;42.47;20.83;;;;;;;-3.39;100.00;101638.66;5088049;28;20020;-77
2024/01/30 02:42:18;;;;;;;38.75;19.65;;;;;;;-3.45;100.00;101633.94;5116651;27;20024;-76
2024/01/30 02:44:44;;;;;;;47.35;23.73;;;;;;;-3.50;100.00;101637.25;5088267;28;20035;-77
2024/01/30 02:47:09;;;;;;;45.63;23.45;;;;;;;-3.52;100.00;101631.13;5089639;28;20032;-78
2024/01/30 02:49:35;;;;;;;31.65;15.65;;;;;;;-3.37;100.00;101631.13;5088618;28;20023;-80
2024/01/30 02:52:00;;;;;;;29.38;15.27;;;;;;;-3.33;98.97;101632.44;5088543;28;20029;-80
2024/01/30 02:54:26;;;;;;;24.00;12.80;;;;;;;-3.52;100.00;101640.16;5089680;28;20409;-80
2024/01/30 02:56:51;;;;;;;32.05;15.63;;;;;;;-3.31;100.00;101641.31;5088447;28;20027;-80
2024/01/30 02:59:17;;;;;;;24.70;12.23;;;;;;;-3.40;99.99;101637.81;5101391;28;20038;-79
2024/01/30 03:01:44;;;;;;;26.33;11.98;;;;;;;-3.09;100.00;101644.13;5109243;28;20016;-78
2024/01/30 03:04:09;;;;;;;21.25;12.90;;;;;;;-2.79;98.78;101645.97;5108647;28;20118;-79
2024/01/30 03:06:35;;;;;;;21.75;12.32;;;;;;;-2.96;97.85;101641.56;5108924;28;20106;-80
2024/01/30 03:09:00;;;;;;;25.77;13.32;;;;;;;-2.98;98.08;101642.78;5104196;28;20036;-76
2024/01/30 03:11:25;;;;;;;20.80;11.68;;;;;;;-3.00;98.57;101637.50;5088454;28;20016;-78
2024/01/30 03:13:51;;;;;;;20.95;11.85;;;;;;;-3.01;99.23;101637.69;5093173;28;20027;-77
2024/01/30 03:16:16;;;;;;;22.92;11.75;;;;;;;-3.01;99.41;101646.78;5108909;28;20541;-79
2024/01/30 03:18:42;;;;;;;19.27;11.32;;;;;;;-3.29;100.00;101644.69;5110195;28;20084;-80
2024/01/30 03:21:07;;;;;;;21.42;11.55;;;;;;;-3.18;100.00;101632.44;5109875;28;20407;-76
2024/01/30 03:23:33;;;;;;;25.88;12.32;;;;;;;-3.21;100.00;101634.69;5097927;28;20036;-78
2024/01/30 03:25:58;;;;;;;33.10;16.73;;;;;;;-3.26;100.00;101641.59;5107701;28;20016;-79
2024/01/30 03:28:24;;;;;;;29.15;14.60;;;;;;;-3.28;100.00;101643.66;5095913;28;20035;-80
2024/01/30 03:30:49;;;;;;;27.15;13.50;;;;;;;-3.24;100.00;101627.69;5089471;28;20432;-80
2024/01/30 03:33:15;;;;;;;24.77;13.30;;;;;;;-3.13;100.00;101632.69;5089450;28;20048;-79
2024/01/30 03:35:40;;;;;;;27.75;12.35;;;;;;;-3.15;100.00;101636.66;5089260;28;20024;-79
2024/01/30 03:38:05;;;;;;;23.25;10.60;;;;;;;-3.06;100.00;101642.91;5089911;28;20085;-81
2024/01/30 03:40:31;;;;;;;23.30;10.95;;;;;;;-3.02;100.00;101634.09;5096667;28;20031;-79
2024/01/30 03:42:56;;;;;;;20.95;11.20;;;;;;;-2.88;100.00;101635.13;5088032;28;20021;-80
2024/01/30 03:45:22;;;;;;;17.10;9.60;;;;;;;-2.79;100.00;101640.50;5089187;28;20035;-80
2024/01/30 03:47:47;;;;;;;15.60;8.95;;;;;;;-2.83;100.00;101629.06;5102111;28;20565;-80
2024/01/30 03:50:13;;;;;;;19.42;10.27;;;;;;;-2.59;100.00;101648.94;5104583;28;20057;-77
2024/01/30 03:52:39;;;;;;;28.50;15.75;;;;;;;-2.40;99.94;101647.44;5089266;28;20546;-77
2024/01/30 03:55:05;;;;;;;33.22;18.55;;;;;;;-2.45;100.00;101638.97;5105343;28;20114;-80
2024/01/30 03:57:30;;;;;;;33.72;17.17;;;;;;;-2.50;100.00;101644.16;5102481;28;20032;-78
2024/01/30 03:59:56;;;;;;;31.42;16.08;;;;;;;-2.34;100.00;101646.69;5110818;28;20032;-72
2024/01/30 04:02:21;;;;;;;45.80;23.52;;;;;;;-2.08;100.00;101650.72;5101847;28;20424;-71
2024/01/30 04:04:47;;;;;;;56.53;25.65;;;;;;;-1.88;100.00;101642.66;5112196;28;20089;-71
2024/01/30 04:07:12;;;;;;;41.05;20.90;;;;;;;-1.61;99.63;101639.28;5113679;28;20032;-71
2024/01/30 04:09:38;;;;;;;33.40;16.42;;;;;;;-1.61;97.82;101625.56;5112309;28;20393;-71
2024/01/30 04:12:04;;;;;;;31.23;16.80;;;;;;;-1.36;97.37;101628.66;5113566;28;20033;-71
2024/01/30 04:14:31;;;;;;;35.28;17.08;;;;;;;-1.28;96.01;101633.97;5113184;28;20446;-71
2024/01/30 04:16:56;;;;;;;37.15;17.15;;;;;;;-1.72;96.32;101625.06;5106221;28;20412;-71
2024/01/30 04:19:22;;;;;;;40.20;19.17;;;;;;;-1.72;97.29;101641.53;5093182;28;20032;-71
2024/01/30 04:21:47;;;;;;;38.38;20.80;;;;;;;-1.46;96.97;101634.50;5074748;28;20039;-71
2024/01/30 04:24:17;;;;;;;43.38;23.05;;;;;;;-1.30;96.29;101627.84;5092927;28;20051;-71
2024/01/30 04:26:42;;;;;;;48.50;23.38;;;;;;;-1.19;95.21;101631.09;5103828;28;20479;-71
2024/01/30 04:29:07;;;;;;;54.20;23.50;;;;;;;-1.56;95.35;101615.66;5101401;28;20032;-71
2024/01/30 04:31:33;;;;;;;52.13;28.17;;;;;;;-1.27;95.34;101632.06;5096636;28;20027;-71
2024/01/30 04:33:58;;;;;;;50.25;24.33;;;;;;;-1.09;94.85;101637.03;5111833;28;20031;-71
2024/01/30 04:36:24;;;;;;;48.60;23.38;;;;;;;-0.90;93.35;101635.44;5113387;28;20022;-71
2024/01/30 04:38:49;;;;;;;41.80;20.55;;;;;;;-0.83;92.78;101646.47;5111280;28;20028;-71
2024/01/30 04:41:15;;;;;;;36.75;18.65;;;;;;;-0.77;92.39;101642.88;5111701;28;20572;-71
2024/01/30 04:43:40;;;;;;;32.22;17.65;;;;;;;-1.06;92.76;101639.38;5111969;28;20112;-71
2024/01/30 04:46:06;;;;;;;34.97;18.05;;;;;;;-0.94;92.84;101636.06;5112800;28;20420;-71
2024/01/30 04:48:34;;;;;;;36.50;17.85;;;;;;;-0.91;93.74;101650.22;5108953;28;20116;-71
2024/01/30 04:51:02;;;;;;;42.17;21.35;;;;;;;-0.74;93.32;101650.69;5111128;28;20016;-71
2024/01/30 04:53:30;;;;;;;42.80;22.77;;;;;;;-0.54;92.66;101668.31;5112943;28;20015;-71
2024/01/30 04:55:55;;;;;;;58.28;29.80;;;;;;;-0.52;91.77;101658.81;5111312;28;20031;-71
2024/01/30 04:58:21;;;;;;;68.60;29.83;;;;;;;-0.49;91.45;101666.63;5112314;28;20024;-71
2024/01/30 05:00:51;;;;;;;70.85;30.48;;;;;;;-0.44;90.49;101666.03;5111475;28;20472;-71
2024/01/30 05:03:17;;;;;;;;;;;;;;;-0.37;89.42;101682.53;5107285;28;20022;-71
2024/01/30 05:05:43;;;;;;;38.17;20.35;;;;;;;-0.81;90.07;101662.72;5111256;28;19908;-70
2024/01/30 05:08:08;;;;;;;38.35;19.38;;;;;;;-0.89;90.83;101669.25;5110816;28;20107;-74
2024/01/30 05:10:33;;;;;;;59.03;26.45;;;;;;;-0.85;91.34;101670.53;5111678;28;20023;-74
2024/01/30 05:12:59;;;;;;;40.10;19.52;;;;;;;-0.99;92.03;101673.22;5111810;28;20027;-73
2024/01/30 05:15:24;;;;;;;41.63;21.23;;;;;;;-1.02;92.12;101676.38;5101746;28;20480;-73
2024/01/30 05:17:50;;;;;;;54.72;25.92;;;;;;;-1.03;92.16;101676.56;5091454;28;20047;-74
2024/01/30 05:20:16;;;;;;;54.28;28.00;;;;;;;-1.28;92.94;101677.94;5094169;28;20089;-73
2024/01/30 05:22:44;;;;;;;62.80;30.40;;;;;;;-1.32;92.87;101675.78;5107848;28;20023;-73
2024/01/30 05:25:11;;;;;;;58.38;30.48;;;;;;;-1.51;94.20;101674.59;5107308;28;20043;-72
2024/01/30 05:27:37;;;;;;;62.35;28.70;;;;;;;-1.55;95.03;101679.63;5110882;28;20027;-74
2024/01/30 05:30:02;;;;;;;43.38;22.98;;;;;;;-1.68;95.79;101679.53;5093053;28;20028;-74
2024/01/30 05:32:28;;;;;;;33.88;19.10;;;;;;;-1.35;95.15;101685.25;5091010;28;20522;-74
2024/01/30 05:34:54;;;;;;;45.75;20.73;;;;;;;-1.09;94.60;101675.47;5089825;28;20066;-73
2024/01/30 05:37:20;;;;;;;74.47;33.90;;;;;;;-0.93;93.95;101670.72;5106539;28;20199;-74
2024/01/30 05:39:45;;;;;;;86.20;32.70;;;;;;;-0.75;93.40;101681.16;5090823;28;20035;-73
2024/01/30 05:42:11;;;;;;;56.55;25.23;;;;;;;-0.73;91.88;101685.38;5090626;28;20047;-74
2024/01/30 05:44:36;;;;;;;66.35;24.83;;;;;;;-0.86;91.54;101674.31;5090909;28;20103;-74
2024/01/30 05:47:02;;;;;;;82.82;38.60;;;;;;;-1.50;94.52;101681.78;5099994;28;20041;-74
2024/01/30 05:49:28;;;;;;;68.90;31.38;;;;;;;-1.51;94.92;101683.66;5111158;28;20480;-74
2024/01/30 05:51:53;;;;;;;56.47;26.20;;;;;;;-1.68;96.63;101677.66;5110921;28;20480;-71
2024/01/30 05:54:19;;;;;;;61.38;26.58;;;;;;;-1.44;96.31;101684.56;5095328;28;20576;-71
2024/01/30 05:56:44;;;;;;;50.08;24.75;;;;;;;-1.18;95.08;101680.31;5109125;28;20043;-70
2024/01/30 05:59:10;;;;;;;61.17;29.30;;;;;;;-1.06;94.75;101683.34;5100342;28;20121;-70
2024/01/30 06:01:35;;;;;;;76.50;36.08;;;;;;;-1.00;94.37;101679.75;5089127;28;20028;-69
2024/01/30 06:04:01;;;;;;;66.75;31.52;;;;;;;-0.85;93.92;101681.50;5089781;28;20519;-71
2024/01/30 06:06:27;;;;;;;64.15;32.65;;;;;;;-1.44;94.02;101683.75;5105732;28;20032;-72
2024/01/30 06:08:55;;;;;;;73.93;33.20;;;;;;;-1.43;95.76;101685.44;5101917;28;20253;-72
2024/01/30 06:11:20;;;;;;;67.47;31.33;;;;;;;-1.73;96.75;101693.84;5096243;28;20499;-71
2024/01/30 06:13:46;;;;;;;53.42;26.58;;;;;;;-1.86;98.26;101683.63;5100438;28;20028;-70
2024/01/30 06:16:12;;;;;;;55.25;21.38;;;;;;;-2.21;100.00;101694.47;5098887;28;20106;-72
2024/01/30 06:18:37;;;;;;;35.30;20.80;;;;;;;-2.30;100.00;101682.75;5087525;28;20040;-72
2024/01/30 06:21:04;;;;;;;35.85;18.20;;;;;;;-2.31;100.00;101692.03;5090264;28;20077;-73
2024/01/30 06:23:30;;;;;;;30.63;17.90;;;;;;;-2.21;100.00;101700.78;5098325;28;20508;-76
2024/01/30 06:25:55;;;;;;;33.78;17.75;;;;;;;-2.32;100.00;101696.69;5097534;28;20092;-73
2024/01/30 06:28:21;;;;;;;23.98;14.65;;;;;;;-2.29;100.00;101699.03;5095492;28;20051;-73
2024/01/30 06:30:46;;;;;;;27.08;15.68;;;;;;;-2.32;99.70;101698.56;5096595;28;20452;-74
2024/01/30 06:33:13;;;;;;;31.88;17.30;;;;;;;-2.37;100.00;101701.03;5097936;28;20027;-80
2024/01/30 06:35:40;;;;;;;31.92;15.55;;;;;;;-2.47;100.00;101704.09;5096278;28;20027;-77
2024/01/30 06:38:05;;;;;;;27.83;15.75;;;;;;;-2.22;99.53;101715.53;5096888;28;20089;-78
2024/01/30 06:40:31;;;;;;;38.67;22.02;;;;;;;-2.43;99.62;101708.16;5096030;28;20054;-76
2024/01/30 06:42:57;;;;;;;32.90;18.52;;;;;;;-2.23;100.00;101716.59;5095914;28;20034;-79
2024/01/30 06:45:22;;;;;;;56.05;31.45;;;;;;;-2.11;99.56;101708.72;5098646;28;20480;-77
2024/01/30 06:47:47;;;;;;;88.85;50.78;;;;;;;-2.27;99.07;101704.31;5096176;28;20443;-80
2024/01/30 06:50:13;;;;;;;44.55;23.30;;;;;;;-1.88;98.22;101705.75;5097522;28;20073;-80
2024/01/30 06:52:38;;;;;;;42.25;23.05;;;;;;;-1.79;96.96;101708.38;5094835;28;20012;-78
2024/01/30 06:55:04;;;;;;;49.03;25.35;;;;;;;-1.57;96.12;101710.03;5095291;28;20520;-77
2024/01/30 06:57:30;;;;;;;42.50;21.00;;;;;;;-1.54;95.04;101716.19;5097186;28;20019;-72
2024/01/30 06:59:56;;;;;;;43.72;20.42;;;;;;;-1.81;96.80;101718.69;5096442;28;20020;-71
2024/01/30 07:02:21;;;;;;;56.00;25.58;;;;;;;-1.64;96.30;101722.00;5098339;28;20452;-72
2024/01/30 07:04:46;;;;;;;41.38;19.35;;;;;;;-1.89;97.49;101726.00;5095737;28;20028;-79
2024/01/30 07:07:13;;;;;;;33.05;15.52;;;;;;;-1.79;97.28;101722.94;5099544;28;20028;-76
2024/01/30 07:09:39;;;;;;;36.28;16.55;;;;;;;-1.80;98.25;101723.16;5104666;28;20024;-78
2024/01/30 07:12:05;;;;;;;34.88;16.20;;;;;;;-1.80;97.61;101725.88;5092780;28;20015;-75
2024/01/30 07:14:30;;;;;;;33.75;15.65;;;;;;;-1.81;99.07;101727.78;5108544;28;20221;-74
2024/01/30 07:16:55;;;;;;;41.13;19.48;;;;;;;-1.79;99.00;101724.84;5097638;28;20027;-74
2024/01/30 07:19:21;;;;;;;32.60;18.50;;;;;;;-1.78;98.04;101721.88;5106243;28;20036;-74
2024/01/30 07:21:46;;;;;;;42.47;26.15;;;;;;;-1.78;98.35;101721.03;5102492;28;20024;-78
2024/01/30 07:24:12;;;;;;;30.40;15.48;;;;;;;-1.86;97.52;101722.88;5096075;28;20052;-77
2024/01/30 07:26:37;;;;;;;31.13;16.65;;;;;;;-1.93;99.34;101723.84;5096836;28;20027;-76
2024/01/30 07:29:06;;;;;;;28.10;15.88;;;;;;;-1.82;98.29;101720.59;5102477;28;20035;-71
2024/01/30 07:31:31;;;;;;;54.20;26.35;;;;;;;-1.75;97.67;101720.66;5085837;28;20031;-72
2024/01/30 07:33:57;;;;;;;37.47;20.40;;;;;;;-1.72;97.46;101723.84;5111657;28;20050;-72
2024/01/30 07:36:24;;;;;;;29.98;16.55;;;;;;;-1.79;96.61;101708.38;5113894;28;20472;-72
2024/01/30 07:38:50;;;;;;;40.85;18.38;;;;;;;-1.65;97.54;101714.81;5105159;28;20088;-72
2024/01/30 07:41:15;;;;;;;46.70;21.25;;;;;;;-1.83;96.63;101694.19;5112245;28;20028;-70
2024/01/30 07:43:43;;;;;;;56.17;27.00;;;;;;;-1.67;96.47;101694.94;5106803;28;20031;-71
2024/01/30 07:46:14;;;;;;;55.80;26.23;;;;;;;-1.68;97.13;101694.13;5110230;28;20027;-73
2024/01/30 07:48:41;;;;;;;44.72;26.17;;;;;;;-1.63;96.70;101693.50;5110850;28;20100;-71
2024/01/30 07:51:06;;;;;;;37.47;20.38;;;;;;;-1.63;95.95;101702.59;5099284;28;20577;-69
2024/01/30 07:53:32;;;;;;;35.45;19.75;;;;;;;-1.73;95.88;101694.72;5094870;28;20020;-81
2024/01/30 07:56:00;;;;;;;33.03;17.65;;;;;;;-1.62;95.24;101698.78;5110673;28;20051;-70
2024/01/30 07:58:27;;;;;;;32.25;16.50;;;;;;;-1.60;95.66;101690.38;5111219;28;20088;-70
2024/01/30 08:00:53;;;;;;;39.58;21.60;;;;;;;-1.36;95.69;101708.28;5107202;28;20115;-69
2024/01/30 08:03:19;;;;;;;47.08;24.13;;;;;;;-1.23;94.17;101691.06;5102312;28;20043;-69
2024/01/30 08:05:44;;;;;;;42.92;22.95;;;;;;;-1.23;93.72;101691.06;5102205;28;20062;-69
2024/01/30 08:08:10;;;;;;;36.15;18.60;;;;;;;-1.34;93.26;101686.94;5109376;28;20409;-69
2024/01/30 08:10:36;;;;;;;42.25;17.20;;;;;;;-1.04;92.03;101683.97;5101472;28;20103;-69
2024/01/30 08:13:02;;;;;;;30.65;15.27;;;;;;;-1.10;92.33;101673.78;5111880;28;20037;-70
2024/01/30 08:15:27;;;;;;;34.58;17.17;;;;;;;-0.75;91.78;101692.16;5111098;28;20035;-70
2024/01/30 08:17:57;;;;;;;44.95;21.25;;;;;;;-0.51;90.45;101690.75;5111283;28;20038;-69
2024/01/30 08:20:23;;;;;;;35.28;17.52;;;;;;;-0.53;89.11;101701.13;5096200;28;20115;-69
2024/01/30 08:22:49;;;;;;;35.92;18.00;;;;;;;-0.40;89.25;101699.47;5092646;28;20122;-69
2024/01/30 08:25:14;;;;;;;29.90;14.70;;;;;;;-0.48;86.36;101681.25;5092478;28;20587;-69
2024/01/30 08:27:40;;;;;;;25.40;14.93;;;;;;;-0.46;85.81;101682.75;5106245;28;20102;-69
2024/01/30 08:30:07;;;;;;;35.72;16.17;;;;;;;-0.40;85.10;101680.22;5111551;28;20023;-69
2024/01/30 08:32:32;;;;;;;22.77;13.60;;;;;;;-0.32;83.30;101680.03;5107906;28;20030;-70
2024/01/30 08:34:58;;;;;;;33.13;18.05;;;;;;;-0.33;83.17;101678.34;5111509;28;20019;-69
2024/01/30 08:37:24;;;;;;;34.45;15.63;;;;;;;-0.18;81.75;101687.25;5112808;28;20023;-69
2024/01/30 08:39:49;;;;;;;31.13;15.70;;;;;;;-0.12;81.82;101688.31;5111926;28;20026;-69
2024/01/30 08:42:15;;;;;;;28.30;15.35;;;;;;;0.08;80.77;101702.09;5111584;28;20027;-69
2024/01/30 08:44:41;;;;;;;18.13;9.77;;;;;;;-0.06;78.13;101705.91;5110285;28;20035;-69
2024/01/30 08:47:06;;;;;;;29.10;12.82;;;;;;;-0.08;78.38;101697.00;5112891;28;20058;-69
2024/01/30 08:49:32;;;;;;;24.05;12.00;;;;;;;0.00;76.48;101680.31;5111126;28;20022;-69
2024/01/30 08:51:57;;;;;;;26.33;12.77;;;;;;;-0.04;76.63;101692.78;5095326;28;20484;-69
2024/01/30 08:54:23;;;;;;;18.80;10.18;;;;;;;-0.12;76.41;101692.97;5109413;28;20031;-69
2024/01/30 08:56:50;;;;;;;23.33;12.60;;;;;;;0.12;77.02;101694.28;5112628;28;20034;-70
2024/01/30 08:59:15;;;;;;;36.67;16.90;;;;;;;0.20;75.41;101693.22;5112306;28;20023;-70
2024/01/30 09:01:41;;;;;;;26.00;14.05;;;;;;;0.40;75.19;101699.59;5097460;28;20412;-69
2024/01/30 09:04:06;;;;;;;28.52;14.18;;;;;;;0.26;75.86;101684.97;5092184;28;20034;-70
2024/01/30 09:06:31;;;;;;;37.67;15.88;;;;;;;0.33;76.56;101686.88;5092392;28;20419;-70
2024/01/30 09:08:57;;;;;;;29.02;13.82;;;;;;;0.44;75.23;101685.38;5090901;28;20085;-70
2024/01/30 09:11:24;;;;;;;23.05;12.13;;;;;;;0.47;74.27;101693.22;5096005;28;20032;-70
2024/01/30 09:13:50;;;;;;;25.27;13.88;;;;;;;0.55;74.85;101684.75;5090941;28;20024;-70
2024/01/30 09:16:16;;;;;;;29.58;12.93;;;;;;;0.51;75.04;101670.53;5092081;28;20028;-70
2024/01/30 09:18:42;;;;;;;26.00;11.38;;;;;;;0.71;74.81;101683.44;5111015;28;20491;-69
2024/01/30 09:21:07;;;;;;;22.60;11.45;;;;;;;0.73;74.13;101672.22;5112145;28;20034;-70
2024/01/30 09:23:33;;;;;;;29.70;15.50;;;;;;;0.76;73.37;101667.09;5107452;28;20048;-69
2024/01/30 09:25:59;;;;;;;23.35;11.38;;;;;;;0.78;72.67;101661.41;5101000;28;20023;-70
2024/01/30 09:28:26;;;;;;;19.50;10.48;;;;;;;0.88;72.00;101660.94;5100715;28;20493;-70
2024/01/30 09:30:51;;;;;;;20.00;10.50;;;;;;;0.91;70.59;101655.84;5106990;28;20539;-70
2024/01/30 09:33:17;;;;;;;19.20;12.02;;;;;;;0.96;71.36;101658.78;5106453;28;20039;-70
2024/01/30 09:35:42;;;;;;;24.40;10.70;;;;;;;1.14;69.75;101664.66;5110739;28;20499;-70
2024/01/30 09:38:09;;;;;;;124.97;49.22;;;;;;;1.06;70.57;101649.22;5111493;28;20479;-70
2024/01/30 09:40:34;;;;;;;78.47;33.80;;;;;;;1.23;71.26;101653.19;5110555;28;20584;-70
2024/01/30 09:43:00;;;;;;;20.15;10.48;;;;;;;1.15;67.74;101636.88;5109827;28;20032;-70
2024/01/30 09:45:26;;;;;;;24.05;9.80;;;;;;;1.31;66.96;101640.19;5110032;28;20027;-71
2024/01/30 09:47:52;;;;;;;16.48;8.98;;;;;;;1.30;66.32;101633.84;5111820;28;20036;-71
2024/01/30 09:50:19;;;;;;;37.10;11.52;;;;;;;1.39;67.15;101635.31;5108347;28;20031;-71
2024/01/30 09:52:46;;;;;;;38.63;10.80;;;;;;;1.48;68.13;101632.25;5073667;28;20051;-71
2024/01/30 09:55:12;;;;;;;28.75;16.52;;;;;;;1.41;67.95;101626.78;5105483;28;20114;-71
2024/01/30 09:57:38;;;;;;;14.32;8.35;;;;;;;1.57;66.02;101636.47;5108487;28;20038;-71
2024/01/30 10:00:04;;;;;;;17.55;9.65;;;;;;;1.78;66.38;101638.00;5106208;28;20047;-71
2024/01/30 10:02:32;;;;;;;17.17;9.52;;;;;;;1.88;65.17;101637.53;5102127;28;20032;-70
2024/01/30 10:04:57;;;;;;;30.33;13.10;;;;;;;1.84;65.31;101641.78;5096738;28;20063;-70
2024/01/30 10:07:23;;;;;;;15.70;8.27;;;;;;;1.72;65.11;101636.16;5102021;28;20480;-70
2024/01/30 10:09:49;;;;;;;16.77;9.02;;;;;;;1.75;66.71;101632.09;5101848;28;20032;-70
2024/01/30 10:12:15;;;;;;;18.95;10.73;;;;;;;2.04;65.16;101630.59;5090038;28;20020;-70
2024/01/30 10:14:42;;;;;;;37.22;18.77;;;;;;;2.11;63.31;101636.06;5089889;28;20024;-70
2024/01/30 10:17:11;;;;;;;14.40;8.07;;;;;;;1.95;62.56;101626.44;5090004;28;20446;-70
2024/01/30 10:19:38;;;;;;;14.25;7.53;;;;;;;2.02;62.63;101626.41;5088741;28;20036;-70
2024/01/30 10:22:04;;;;;;;16.05;10.82;;;;;;;2.17;62.64;101629.66;5089970;28;20439;-70
2024/01/30 10:24:29;;;;;;;17.73;10.75;;;;;;;2.26;62.92;101621.94;5096916;28;20047;-69
2024/01/30 10:26:55;;;;;;;17.10;9.63;;;;;;;2.31;61.22;101618.50;5108680;28;20454;-71
2024/01/30 10:29:21;;;;;;;18.90;8.95;;;;;;;2.41;61.34;101629.00;5097755;28;20023;-72
2024/01/30 10:31:47;;;;;;;14.43;8.80;;;;;;;2.18;60.86;101625.00;5107733;28;20019;-74
2024/01/30 10:34:13;;;;;;;15.80;9.32;;;;;;;2.32;60.55;101618.28;5107973;28;20032;-73
2024/01/30 10:36:46;;;;;;;17.40;7.65;;;;;;;2.30;59.37;101625.09;5108413;28;20129;-75
2024/01/30 10:39:15;;;;;;;11.82;6.80;;;;;;;2.32;57.76;101621.03;5091642;28;20035;-73
2024/01/30 10:41:44;;;;;;;10.65;5.93;;;;;;;2.61;58.59;101624.13;5087493;28;20032;-73
2024/01/30 10:44:11;;;;;;;12.85;6.40;;;;;;;2.63;57.17;101630.28;5089692;28;20525;-71
2024/01/30 10:46:42;;;;;;;10.98;5.57;;;;;;;2.76;55.66;101617.38;5100889;28;20462;-74
2024/01/30 10:49:09;;;;;;;8.30;5.38;;;;;;;2.97;55.21;101618.88;5103803;28;20408;-72
2024/01/30 10:51:38;;;;;;;7.78;5.15;;;;;;;3.31;57.55;101612.91;5092609;28;20482;-73
2024/01/30 10:54:05;;;;;;;10.13;5.68;;;;;;;3.66;56.73;101601.13;5100670;28;20058;-74
2024/01/30 10:56:33;;;;;;;12.77;7.00;;;;;;;4.07;53.49;101613.22;5120409;28;20036;-72
2024/01/30 10:58:59;;;;;;;14.73;6.10;;;;;;;4.16;52.21;101601.81;5100258;28;20088;-72
2024/01/30 11:01:25;;;;;;;7.63;5.07;;;;;;;4.12;51.91;101604.22;5097529;28;20028;-72
2024/01/30 11:03:52;;;;;;;9.32;5.53;;;;;;;4.45;50.99;101601.94;5092558;28;20262;-72
2024/01/30 11:06:18;;;;;;;11.15;5.70;;;;;;;4.63;49.03;101600.94;5094975;28;20024;-72